Ear Falls, Ontario

10:48 AM CDT on 五月 27, 2017 (GMT -0500)
Dryden Airport | | Change Station

高度 1352 ft 49.83 °N, 92.74 °W | Updated 1 minute ago

所により曇
所により曇
64 °F
体感気温 64 °F
14
風 変数 風 から 南西
Gusts 21 Mph

今日
高い -- | 低 -- °F
--% 降水確率
昨日
高い -- | 低 -- °F
Precip. -- インチ
気圧 29.76 インチ
視程 9.0 マイル
わずか 4100 ft
露点温度 46 °F
湿度 52%
降水 0.00 インチ
積雪深 利用不可。
5:09 AM 9:11 PM
三日月, 5% visible
SPECI CYHD 271547Z AUTO 23012G18KT 9SM FEW041 18/08 A2974 RMK WSHFT AT 1537Z SLP077 DENSITY ALT 2100FT
気圧 29.76 インチ
視程 9.0 マイル
わずか 4100 ft
露点温度 46 °F
湿度 52%
降水 0.00 インチ
積雪深 利用不可。
5:09 AM 9:11 PM
三日月, 5% visible
SPECI CYHD 271547Z AUTO 23012G18KT 9SM FEW041 18/08 A2974 RMK WSHFT AT 1537Z SLP077 DENSITY ALT 2100FT

Get Severe Weather Alerts

Thanks for signing up!

Be on the lookout for a verification email in your inbox.

You'll start receiving the daily forecast at 6 AM.

×

10-Day Weather Forecast

Almanac

天文

May. 27, 2017 入り
実時間
常用薄明
航海薄明
天文薄明
可視光の長さ
可照時間
Tomorrow will be .
, % of the Moon is Illuminated

今日の極値

Country Highs Country Lows

Community

Category 6

Welcome to Category 6. This is the collective home for Weather Underground's featured writeups by Dr. Jeff Masters (right), Bob Henson (left), Chris Burt, and other regular contributors.

Nearby

空気品質

  空気品質 大気質指数 汚染物質
Not available.

積雪深

Station Depth 高度

地震活動

Distance Mag. Time & Date
Minimum magnitude displayed is 2.5.

沿岸の水温

地名 気温

Stations

最寄りの気象観測所

観測所位置 温度 体感気温(寒さ) 露点温度 湿度 Precip. 高度 更新日時 タイプする
                   

Watches & Warnings

There are currently no watches in effect.